sensor_id;sensor_type;location;lat;lon;timestamp;temperature;humidity
44069;DHT22;29738;51.234;5.484;2023-04-26T00:02:22;4.00;99.90
44069;DHT22;29738;51.234;5.484;2023-04-26T00:04:54;4.00;99.90
44069;DHT22;29738;51.234;5.484;2023-04-26T00:07:22;3.90;99.90
44069;DHT22;29738;51.234;5.484;2023-04-26T00:09:52;3.90;99.90
44069;DHT22;29738;51.234;5.484;2023-04-26T00:12:17;3.80;99.90
44069;DHT22;29738;51.234;5.484;2023-04-26T00:14:43;3.80;99.90
44069;DHT22;29738;51.234;5.484;2023-04-26T00:17:10;3.90;99.90
44069;DHT22;29738;51.234;5.484;2023-04-26T00:19:36;4.00;99.90
44069;DHT22;29738;51.234;5.484;2023-04-26T00:22:01;3.90;99.90
44069;DHT22;29738;51.234;5.484;2023-04-26T00:24:27;3.80;99.90
44069;DHT22;29738;51.234;5.484;2023-04-26T00:26:53;3.90;99.90
44069;DHT22;29738;51.234;5.484;2023-04-26T00:29:19;3.70;99.90
44069;DHT22;29738;51.234;5.484;2023-04-26T00:31:45;4.00;99.90
44069;DHT22;29738;51.234;5.484;2023-04-26T00:34:14;3.90;99.90
44069;DHT22;29738;51.234;5.484;2023-04-26T00:36:40;3.90;99.90
44069;DHT22;29738;51.234;5.484;2023-04-26T00:39:06;3.80;99.90
44069;DHT22;29738;51.234;5.484;2023-04-26T00:41:32;3.70;99.90
44069;DHT22;29738;51.234;5.484;2023-04-26T00:43:58;3.60;99.90
44069;DHT22;29738;51.234;5.484;2023-04-26T00:46:24;3.60;99.90
44069;DHT22;29738;51.234;5.484;2023-04-26T00:48:50;3.50;99.90
44069;DHT22;29738;51.234;5.484;2023-04-26T00:51:16;3.60;99.90
44069;DHT22;29738;51.234;5.484;2023-04-26T00:53:41;3.40;99.90
44069;DHT22;29738;51.234;5.484;2023-04-26T00:56:11;3.50;99.90
44069;DHT22;29738;51.234;5.484;2023-04-26T00:58:36;3.50;99.90
44069;DHT22;29738;51.234;5.484;2023-04-26T01:01:02;3.50;99.90
44069;DHT22;29738;51.234;5.484;2023-04-26T01:03:28;3.30;99.90
44069;DHT22;29738;51.234;5.484;2023-04-26T01:05:54;3.40;99.90
44069;DHT22;29738;51.234;5.484;2023-04-26T01:08:20;3.30;99.90
44069;DHT22;29738;51.234;5.484;2023-04-26T01:10:47;3.40;99.90
44069;DHT22;29738;51.234;5.484;2023-04-26T01:13:13;3.40;99.90
44069;DHT22;29738;51.234;5.484;2023-04-26T01:15:43;3.30;99.90
44069;DHT22;29738;51.234;5.484;2023-04-26T01:18:09;3.20;99.90
44069;DHT22;29738;51.234;5.484;2023-04-26T01:20:35;3.20;99.90
44069;DHT22;29738;51.234;5.484;2023-04-26T01:23:01;3.20;99.90
44069;DHT22;29738;51.234;5.484;2023-04-26T01:25:26;3.00;99.90
44069;DHT22;29738;51.234;5.484;2023-04-26T01:27:52;2.90;99.90
44069;DHT22;29738;51.234;5.484;2023-04-26T01:30:18;2.90;99.90
44069;DHT22;29738;51.234;5.484;2023-04-26T01:32:43;3.00;99.90
44069;DHT22;29738;51.234;5.484;2023-04-26T01:35:09;3.10;99.90
44069;DHT22;29738;51.234;5.484;2023-04-26T01:37:35;3.00;99.90
44069;DHT22;29738;51.234;5.484;2023-04-26T01:40:00;3.10;99.90
44069;DHT22;29738;51.234;5.484;2023-04-26T01:42:26;3.50;99.90
44069;DHT22;29738;51.234;5.484;2023-04-26T01:44:51;3.30;99.90
44069;DHT22;29738;51.234;5.484;2023-04-26T01:47:17;3.30;99.90
44069;DHT22;29738;51.234;5.484;2023-04-26T01:49:43;3.10;99.90
44069;DHT22;29738;51.234;5.484;2023-04-26T01:52:08;3.10;99.90
44069;DHT22;29738;51.234;5.484;2023-04-26T01:54:34;3.00;99.90
44069;DHT22;29738;51.234;5.484;2023-04-26T01:57:00;2.90;99.90
44069;DHT22;29738;51.234;5.484;2023-04-26T01:59:26;3.00;99.90
44069;DHT22;29738;51.234;5.484;2023-04-26T02:01:52;3.00;99.90
44069;DHT22;29738;51.234;5.484;2023-04-26T02:04:18;2.90;99.90
44069;DHT22;29738;51.234;5.484;2023-04-26T02:06:43;2.90;99.90
44069;DHT22;29738;51.234;5.484;2023-04-26T02:09:09;2.90;99.90
44069;DHT22;29738;51.234;5.484;2023-04-26T02:11:34;2.80;99.90
44069;DHT22;29738;51.234;5.484;2023-04-26T02:14:00;2.70;99.90
44069;DHT22;29738;51.234;5.484;2023-04-26T02:16:26;2.80;99.90
44069;DHT22;29738;51.234;5.484;2023-04-26T02:18:52;2.80;99.90
44069;DHT22;29738;51.234;5.484;2023-04-26T02:21:18;2.60;99.90
44069;DHT22;29738;51.234;5.484;2023-04-26T02:23:44;2.80;99.90
44069;DHT22;29738;51.234;5.484;2023-04-26T02:26:09;3.00;99.90
44069;DHT22;29738;51.234;5.484;2023-04-26T02:28:37;3.10;99.90
44069;DHT22;29738;51.234;5.484;2023-04-26T02:31:02;3.00;99.90
44069;DHT22;29738;51.234;5.484;2023-04-26T02:33:28;3.00;99.90
44069;DHT22;29738;51.234;5.484;2023-04-26T02:35:54;3.00;99.90
44069;DHT22;29738;51.234;5.484;2023-04-26T02:38:19;2.90;99.90
44069;DHT22;29738;51.234;5.484;2023-04-26T02:40:45;2.80;99.90
44069;DHT22;29738;51.234;5.484;2023-04-26T02:43:11;2.80;99.90
44069;DHT22;29738;51.234;5.484;2023-04-26T02:45:40;2.60;99.90
44069;DHT22;29738;51.234;5.484;2023-04-26T02:48:07;2.50;99.90
44069;DHT22;29738;51.234;5.484;2023-04-26T02:50:32;2.40;99.90
44069;DHT22;29738;51.234;5.484;2023-04-26T02:52:58;2.30;99.90
44069;DHT22;29738;51.234;5.484;2023-04-26T02:55:23;2.20;99.90
44069;DHT22;29738;51.234;5.484;2023-04-26T02:57:49;2.10;99.90
44069;DHT22;29738;51.234;5.484;2023-04-26T03:00:15;2.00;99.90
44069;DHT22;29738;51.234;5.484;2023-04-26T03:02:41;2.10;99.90
44069;DHT22;29738;51.234;5.484;2023-04-26T03:05:06;2.20;99.90
44069;DHT22;29738;51.234;5.484;2023-04-26T03:07:33;2.00;99.90
44069;DHT22;29738;51.234;5.484;2023-04-26T03:09:59;2.00;99.90
44069;DHT22;29738;51.234;5.484;2023-04-26T03:12:26;2.00;99.90
44069;DHT22;29738;51.234;5.484;2023-04-26T03:14:51;2.00;99.90
44069;DHT22;29738;51.234;5.484;2023-04-26T03:17:17;2.30;99.90
44069;DHT22;29738;51.234;5.484;2023-04-26T03:19:43;2.30;99.90
44069;DHT22;29738;51.234;5.484;2023-04-26T03:22:09;2.40;99.90
44069;DHT22;29738;51.234;5.484;2023-04-26T03:24:35;2.60;99.90
44069;DHT22;29738;51.234;5.484;2023-04-26T03:27:01;2.60;99.90
44069;DHT22;29738;51.234;5.484;2023-04-26T03:29:26;2.40;99.90
44069;DHT22;29738;51.234;5.484;2023-04-26T03:31:52;2.30;99.90
44069;DHT22;29738;51.234;5.484;2023-04-26T03:34:18;2.40;99.90
44069;DHT22;29738;51.234;5.484;2023-04-26T03:36:43;2.60;99.90
44069;DHT22;29738;51.234;5.484;2023-04-26T03:39:09;3.00;99.90
44069;DHT22;29738;51.234;5.484;2023-04-26T03:41:35;3.00;99.90
44069;DHT22;29738;51.234;5.484;2023-04-26T03:44:03;2.90;99.90
44069;DHT22;29738;51.234;5.484;2023-04-26T03:46:29;2.70;99.90
44069;DHT22;29738;51.234;5.484;2023-04-26T03:48:54;2.50;99.90
44069;DHT22;29738;51.234;5.484;2023-04-26T03:51:20;2.40;99.90
44069;DHT22;29738;51.234;5.484;2023-04-26T03:56:36;2.00;99.90
44069;DHT22;29738;51.234;5.484;2023-04-26T03:59:01;2.00;99.90
44069;DHT22;29738;51.234;5.484;2023-04-26T04:01:27;1.90;99.90
44069;DHT22;29738;51.234;5.484;2023-04-26T04:03:52;2.00;99.90
44069;DHT22;29738;51.234;5.484;2023-04-26T04:06:18;2.00;99.90
44069;DHT22;29738;51.234;5.484;2023-04-26T04:08:44;2.00;99.90
44069;DHT22;29738;51.234;5.484;2023-04-26T04:11:09;2.10;99.90
44069;DHT22;29738;51.234;5.484;2023-04-26T04:13:35;2.10;99.90
44069;DHT22;29738;51.234;5.484;2023-04-26T04:16:00;2.10;99.90
44069;DHT22;29738;51.234;5.484;2023-04-26T04:18:26;2.00;99.90
44069;DHT22;29738;51.234;5.484;2023-04-26T04:20:52;2.10;99.90
44069;DHT22;29738;51.234;5.484;2023-04-26T04:23:17;2.20;99.90
44069;DHT22;29738;51.234;5.484;2023-04-26T04:25:43;2.10;99.90
44069;DHT22;29738;51.234;5.484;2023-04-26T04:28:09;1.90;99.90
44069;DHT22;29738;51.234;5.484;2023-04-26T04:30:36;1.90;99.90
44069;DHT22;29738;51.234;5.484;2023-04-26T04:33:01;1.90;99.90
44069;DHT22;29738;51.234;5.484;2023-04-26T04:35:29;2.10;99.90
44069;DHT22;29738;51.234;5.484;2023-04-26T04:37:57;2.20;99.90
44069;DHT22;29738;51.234;5.484;2023-04-26T04:40:24;2.30;99.90
44069;DHT22;29738;51.234;5.484;2023-04-26T04:42:49;2.40;99.90
44069;DHT22;29738;51.234;5.484;2023-04-26T04:45:15;2.60;99.90
44069;DHT22;29738;51.234;5.484;2023-04-26T04:47:44;2.70;99.90
44069;DHT22;29738;51.234;5.484;2023-04-26T04:50:10;2.70;99.90
44069;DHT22;29738;51.234;5.484;2023-04-26T04:52:36;2.80;99.90
44069;DHT22;29738;51.234;5.484;2023-04-26T04:55:02;2.90;99.90
44069;DHT22;29738;51.234;5.484;2023-04-26T04:57:28;2.80;99.90
44069;DHT22;29738;51.234;5.484;2023-04-26T04:59:54;2.70;99.90
44069;DHT22;29738;51.234;5.484;2023-04-26T05:02:20;2.80;99.90
44069;DHT22;29738;51.234;5.484;2023-04-26T05:04:45;2.80;99.90
44069;DHT22;29738;51.234;5.484;2023-04-26T05:07:11;2.70;99.90
44069;DHT22;29738;51.234;5.484;2023-04-26T05:09:40;2.70;99.90
44069;DHT22;29738;51.234;5.484;2023-04-26T05:12:06;3.00;99.90
44069;DHT22;29738;51.234;5.484;2023-04-26T05:14:31;3.10;99.90
44069;DHT22;29738;51.234;5.484;2023-04-26T08:38:05;10.00;99.90
44069;DHT22;29738;51.234;5.484;2023-04-26T08:40:30;10.20;99.90
44069;DHT22;29738;51.234;5.484;2023-04-26T08:42:57;10.30;99.90
44069;DHT22;29738;51.234;5.484;2023-04-26T08:45:23;10.50;99.90
44069;DHT22;29738;51.234;5.484;2023-04-26T08:47:49;10.50;99.90
44069;DHT22;29738;51.234;5.484;2023-04-26T08:50:19;10.70;99.90
44069;DHT22;29738;51.234;5.484;2023-04-26T08:52:46;11.30;99.90
44069;DHT22;29738;51.234;5.484;2023-04-26T08:55:12;11.40;99.90
44069;DHT22;29738;51.234;5.484;2023-04-26T08:57:38;11.60;99.90
44069;DHT22;29738;51.234;5.484;2023-04-26T09:00:08;11.40;99.90
44069;DHT22;29738;51.234;5.484;2023-04-26T09:02:48;11.60;99.90
44069;DHT22;29738;51.234;5.484;2023-04-26T09:05:14;11.60;99.90
44069;DHT22;29738;51.234;5.484;2023-04-26T09:07:40;11.90;99.90
44069;DHT22;29738;51.234;5.484;2023-04-26T09:10:06;11.80;99.90
44069;DHT22;29738;51.234;5.484;2023-04-26T09:12:33;11.80;99.90
44069;DHT22;29738;51.234;5.484;2023-04-26T09:14:59;11.80;99.90
44069;DHT22;29738;51.234;5.484;2023-04-26T09:17:26;10.60;99.90
44069;DHT22;29738;51.234;5.484;2023-04-26T09:19:52;9.90;99.90
44069;DHT22;29738;51.234;5.484;2023-04-26T09:22:27;9.70;99.90
44069;DHT22;29738;51.234;5.484;2023-04-26T09:24:53;9.80;99.90
44069;DHT22;29738;51.234;5.484;2023-04-26T09:27:18;9.90;99.90
44069;DHT22;29738;51.234;5.484;2023-04-26T09:29:57;10.20;99.90
44069;DHT22;29738;51.234;5.484;2023-04-26T09:32:24;9.90;99.90
44069;DHT22;29738;51.234;5.484;2023-04-26T09:34:50;10.00;99.90
44069;DHT22;29738;51.234;5.484;2023-04-26T09:37:16;10.50;99.90
44069;DHT22;29738;51.234;5.484;2023-04-26T09:39:41;11.00;99.90
44069;DHT22;29738;51.234;5.484;2023-04-26T09:42:08;11.00;99.90
44069;DHT22;29738;51.234;5.484;2023-04-26T09:44:33;11.00;99.90
44069;DHT22;29738;51.234;5.484;2023-04-26T09:49:32;11.50;99.90
44069;DHT22;29738;51.234;5.484;2023-04-26T09:52:01;12.10;99.90
44069;DHT22;29738;51.234;5.484;2023-04-26T09:54:40;12.20;99.90
44069;DHT22;29738;51.234;5.484;2023-04-26T09:57:06;12.10;99.90
44069;DHT22;29738;51.234;5.484;2023-04-26T09:59:38;12.50;99.90
44069;DHT22;29738;51.234;5.484;2023-04-26T10:02:05;12.80;99.90
44069;DHT22;29738;51.234;5.484;2023-04-26T10:04:34;12.80;99.90
44069;DHT22;29738;51.234;5.484;2023-04-26T10:07:00;12.30;99.90
44069;DHT22;29738;51.234;5.484;2023-04-26T10:09:25;12.50;99.90
44069;DHT22;29738;51.234;5.484;2023-04-26T10:11:51;12.30;99.90
44069;DHT22;29738;51.234;5.484;2023-04-26T10:14:17;12.50;99.90
44069;DHT22;29738;51.234;5.484;2023-04-26T10:16:43;12.80;99.90
44069;DHT22;29738;51.234;5.484;2023-04-26T10:19:08;13.00;99.90
44069;DHT22;29738;51.234;5.484;2023-04-26T10:21:35;12.80;99.80
44069;DHT22;29738;51.234;5.484;2023-04-26T10:24:02;13.00;99.60
44069;DHT22;29738;51.234;5.484;2023-04-26T10:29:16;12.80;99.40
44069;DHT22;29738;51.234;5.484;2023-04-26T10:34:42;13.10;99.00
44069;DHT22;29738;51.234;5.484;2023-04-26T10:37:12;13.00;99.40
44069;DHT22;29738;51.234;5.484;2023-04-26T10:39:40;11.80;99.90
44069;DHT22;29738;51.234;5.484;2023-04-26T10:42:25;11.10;99.90
44069;DHT22;29738;51.234;5.484;2023-04-26T10:44:52;10.80;99.90
44069;DHT22;29738;51.234;5.484;2023-04-26T10:47:28;10.30;99.90
44069;DHT22;29738;51.234;5.484;2023-04-26T10:55:37;10.40;99.90
44069;DHT22;29738;51.234;5.484;2023-04-26T10:58:15;10.50;99.90
44069;DHT22;29738;51.234;5.484;2023-04-26T11:01:02;10.70;99.90
44069;DHT22;29738;51.234;5.484;2023-04-26T11:03:29;11.00;99.90
44069;DHT22;29738;51.234;5.484;2023-04-26T11:05:55;11.30;99.90
44069;DHT22;29738;51.234;5.484;2023-04-26T11:08:25;11.20;99.90
44069;DHT22;29738;51.234;5.484;2023-04-26T11:13:32;11.10;99.90
44069;DHT22;29738;51.234;5.484;2023-04-26T11:16:00;12.00;99.90
44069;DHT22;29738;51.234;5.484;2023-04-26T11:18:29;12.20;99.90
44069;DHT22;29738;51.234;5.484;2023-04-26T11:20:55;12.20;99.70
44069;DHT22;29738;51.234;5.484;2023-04-26T11:23:22;12.50;99.90
44069;DHT22;29738;51.234;5.484;2023-04-26T11:25:47;11.70;99.90
44069;DHT22;29738;51.234;5.484;2023-04-26T11:28:13;11.60;99.90
44069;DHT22;29738;51.234;5.484;2023-04-26T11:30:39;11.70;99.90
44069;DHT22;29738;51.234;5.484;2023-04-26T11:33:04;11.90;99.90
44069;DHT22;29738;51.234;5.484;2023-04-26T11:35:34;12.10;98.90
44069;DHT22;29738;51.234;5.484;2023-04-26T11:38:00;12.40;99.70
44069;DHT22;29738;51.234;5.484;2023-04-26T11:40:31;11.40;99.90
44069;DHT22;29738;51.234;5.484;2023-04-26T11:43:00;10.60;99.90
44069;DHT22;29738;51.234;5.484;2023-04-26T11:45:26;10.70;99.90
44069;DHT22;29738;51.234;5.484;2023-04-26T11:47:52;11.00;99.90
44069;DHT22;29738;51.234;5.484;2023-04-26T11:50:18;11.20;99.90
44069;DHT22;29738;51.234;5.484;2023-04-26T11:52:45;11.60;99.90
44069;DHT22;29738;51.234;5.484;2023-04-26T11:55:10;12.30;99.90
44069;DHT22;29738;51.234;5.484;2023-04-26T11:57:36;12.90;99.90
44069;DHT22;29738;51.234;5.484;2023-04-26T12:00:12;13.20;99.90
44069;DHT22;29738;51.234;5.484;2023-04-26T12:02:48;13.50;98.50
44069;DHT22;29738;51.234;5.484;2023-04-26T12:05:24;14.00;99.20
44069;DHT22;29738;51.234;5.484;2023-04-26T12:07:53;13.60;97.80
44069;DHT22;29738;51.234;5.484;2023-04-26T12:10:24;13.40;98.30
44069;DHT22;29738;51.234;5.484;2023-04-26T12:12:51;14.20;99.90
44069;DHT22;29738;51.234;5.484;2023-04-26T12:15:18;14.40;99.90
44069;DHT22;29738;51.234;5.484;2023-04-26T12:17:57;14.70;99.90
44069;DHT22;29738;51.234;5.484;2023-04-26T12:20:26;14.90;98.10
44069;DHT22;29738;51.234;5.484;2023-04-26T12:22:59;14.50;95.80
44069;DHT22;29738;51.234;5.484;2023-04-26T12:25:25;14.50;95.20
44069;DHT22;29738;51.234;5.484;2023-04-26T12:27:51;13.80;95.60
44069;DHT22;29738;51.234;5.484;2023-04-26T12:30:16;12.60;96.80
44069;DHT22;29738;51.234;5.484;2023-04-26T12:32:42;12.60;99.90
44069;DHT22;29738;51.234;5.484;2023-04-26T12:35:08;13.00;99.90
44069;DHT22;29738;51.234;5.484;2023-04-26T12:37:33;13.80;97.20
44069;DHT22;29738;51.234;5.484;2023-04-26T12:39:59;14.10;95.40
44069;DHT22;29738;51.234;5.484;2023-04-26T12:42:25;13.60;97.50
44069;DHT22;29738;51.234;5.484;2023-04-26T12:44:51;13.30;96.60
44069;DHT22;29738;51.234;5.484;2023-04-26T12:47:16;13.30;96.50
44069;DHT22;29738;51.234;5.484;2023-04-26T12:49:42;13.10;96.20
44069;DHT22;29738;51.234;5.484;2023-04-26T12:52:08;12.50;97.20
44069;DHT22;29738;51.234;5.484;2023-04-26T12:54:34;12.00;97.50
44069;DHT22;29738;51.234;5.484;2023-04-26T12:56:59;11.90;97.90
44069;DHT22;29738;51.234;5.484;2023-04-26T12:59:26;11.80;98.10
44069;DHT22;29738;51.234;5.484;2023-04-26T13:01:51;12.50;97.70
44069;DHT22;29738;51.234;5.484;2023-04-26T13:04:17;12.90;96.40
44069;DHT22;29738;51.234;5.484;2023-04-26T13:06:43;13.50;96.00
44069;DHT22;29738;51.234;5.484;2023-04-26T13:09:08;13.80;95.20
44069;DHT22;29738;51.234;5.484;2023-04-26T13:11:37;14.30;95.00
44069;DHT22;29738;51.234;5.484;2023-04-26T13:14:02;14.90;94.20
44069;DHT22;29738;51.234;5.484;2023-04-26T13:16:28;14.20;95.00
44069;DHT22;29738;51.234;5.484;2023-04-26T13:18:54;13.70;96.00
44069;DHT22;29738;51.234;5.484;2023-04-26T13:21:20;13.50;96.60
44069;DHT22;29738;51.234;5.484;2023-04-26T13:23:45;14.20;93.70
44069;DHT22;29738;51.234;5.484;2023-04-26T13:26:17;14.50;94.60
44069;DHT22;29738;51.234;5.484;2023-04-26T13:28:42;14.10;93.40
44069;DHT22;29738;51.234;5.484;2023-04-26T13:31:08;13.60;93.90
44069;DHT22;29738;51.234;5.484;2023-04-26T13:33:34;14.10;93.00
44069;DHT22;29738;51.234;5.484;2023-04-26T13:35:59;14.30;92.50
44069;DHT22;29738;51.234;5.484;2023-04-26T13:38:25;14.50;91.30
44069;DHT22;29738;51.234;5.484;2023-04-26T13:40:51;14.80;91.20
44069;DHT22;29738;51.234;5.484;2023-04-26T13:43:16;14.80;90.80
44069;DHT22;29738;51.234;5.484;2023-04-26T13:45:42;15.00;91.50
44069;DHT22;29738;51.234;5.484;2023-04-26T13:48:10;13.80;92.30
44069;DHT22;29738;51.234;5.484;2023-04-26T13:50:35;12.80;93.40
44069;DHT22;29738;51.234;5.484;2023-04-26T13:53:04;13.40;94.30
44069;DHT22;29738;51.234;5.484;2023-04-26T13:55:30;13.30;93.10
44069;DHT22;29738;51.234;5.484;2023-04-26T13:57:55;13.50;95.80
44069;DHT22;29738;51.234;5.484;2023-04-26T14:00:21;13.00;94.70
44069;DHT22;29738;51.234;5.484;2023-04-26T14:02:47;13.00;95.00
44069;DHT22;29738;51.234;5.484;2023-04-26T14:05:13;12.70;95.20
44069;DHT22;29738;51.234;5.484;2023-04-26T14:07:39;12.90;95.10
44069;DHT22;29738;51.234;5.484;2023-04-26T14:10:05;12.80;95.40
44069;DHT22;29738;51.234;5.484;2023-04-26T14:12:30;12.30;94.60
44069;DHT22;29738;51.234;5.484;2023-04-26T14:14:56;11.90;96.20
44069;DHT22;29738;51.234;5.484;2023-04-26T14:17:22;11.60;95.10
44069;DHT22;29738;51.234;5.484;2023-04-26T14:19:47;12.20;96.30
44069;DHT22;29738;51.234;5.484;2023-04-26T14:22:13;12.60;94.20
44069;DHT22;29738;51.234;5.484;2023-04-26T14:24:41;12.80;94.60
44069;DHT22;29738;51.234;5.484;2023-04-26T14:43:03;15.60;93.00
44069;DHT22;29738;51.234;5.484;2023-04-26T16:24:28;12.70;94.30
44069;DHT22;29738;51.234;5.484;2023-04-26T16:26:53;12.80;96.90
44069;DHT22;29738;51.234;5.484;2023-04-26T16:29:19;12.80;97.70
44069;DHT22;29738;51.234;5.484;2023-04-26T16:31:46;12.90;96.50
44069;DHT22;29738;51.234;5.484;2023-04-26T16:34:11;12.80;96.00
44069;DHT22;29738;51.234;5.484;2023-04-26T16:36:37;12.70;97.10
44069;DHT22;29738;51.234;5.484;2023-04-26T16:39:03;12.80;97.10
44069;DHT22;29738;51.234;5.484;2023-04-26T16:41:28;12.80;97.00
44069;DHT22;29738;51.234;5.484;2023-04-26T16:43:54;12.50;96.20
44069;DHT22;29738;51.234;5.484;2023-04-26T16:46:20;12.30;97.10
44069;DHT22;29738;51.234;5.484;2023-04-26T16:48:46;12.00;97.00
44069;DHT22;29738;51.234;5.484;2023-04-26T21:11:31;8.00;99.90
44069;DHT22;29738;51.234;5.484;2023-04-26T21:13:57;8.00;99.90
44069;DHT22;29738;51.234;5.484;2023-04-26T21:16:23;8.00;99.90
44069;DHT22;29738;51.234;5.484;2023-04-26T21:18:48;8.00;99.90
44069;DHT22;29738;51.234;5.484;2023-04-26T21:21:15;7.90;99.90
44069;DHT22;29738;51.234;5.484;2023-04-26T21:23:40;7.80;99.90
44069;DHT22;29738;51.234;5.484;2023-04-26T21:26:06;7.70;99.90
44069;DHT22;29738;51.234;5.484;2023-04-26T21:28:33;7.70;99.90
44069;DHT22;29738;51.234;5.484;2023-04-26T21:31:04;7.70;99.90
44069;DHT22;29738;51.234;5.484;2023-04-26T21:33:31;7.60;99.90
44069;DHT22;29738;51.234;5.484;2023-04-26T21:35:57;7.60;99.90
44069;DHT22;29738;51.234;5.484;2023-04-26T21:38:23;7.60;99.90
44069;DHT22;29738;51.234;5.484;2023-04-26T21:40:49;7.50;99.90
44069;DHT22;29738;51.234;5.484;2023-04-26T21:43:15;7.50;99.90
44069;DHT22;29738;51.234;5.484;2023-04-26T21:45:41;7.40;99.90
44069;DHT22;29738;51.234;5.484;2023-04-26T21:48:07;7.40;99.90
44069;DHT22;29738;51.234;5.484;2023-04-26T21:50:33;7.40;99.90
44069;DHT22;29738;51.234;5.484;2023-04-26T21:53:00;7.30;99.90
44069;DHT22;29738;51.234;5.484;2023-04-26T21:55:25;7.40;99.90
44069;DHT22;29738;51.234;5.484;2023-04-26T21:57:51;7.20;99.90
44069;DHT22;29738;51.234;5.484;2023-04-26T22:00:17;7.30;99.90
44069;DHT22;29738;51.234;5.484;2023-04-26T22:02:43;7.10;99.90
44069;DHT22;29738;51.234;5.484;2023-04-26T22:05:09;7.20;99.90
44069;DHT22;29738;51.234;5.484;2023-04-26T22:07:35;7.20;99.90
44069;DHT22;29738;51.234;5.484;2023-04-26T22:10:01;7.10;99.90
44069;DHT22;29738;51.234;5.484;2023-04-26T22:12:27;7.00;99.90
44069;DHT22;29738;51.234;5.484;2023-04-26T22:14:53;7.10;99.90
44069;DHT22;29738;51.234;5.484;2023-04-26T22:17:22;6.80;99.90
44069;DHT22;29738;51.234;5.484;2023-04-26T22:19:48;6.90;99.90
44069;DHT22;29738;51.234;5.484;2023-04-26T22:22:14;6.70;99.90
44069;DHT22;29738;51.234;5.484;2023-04-26T22:24:40;6.90;99.90
44069;DHT22;29738;51.234;5.484;2023-04-26T22:27:08;6.80;99.90
44069;DHT22;29738;51.234;5.484;2023-04-26T22:29:33;6.60;99.90
44069;DHT22;29738;51.234;5.484;2023-04-26T22:32:00;6.50;99.90
44069;DHT22;29738;51.234;5.484;2023-04-26T22:34:26;6.50;99.90
44069;DHT22;29738;51.234;5.484;2023-04-26T22:36:52;6.60;99.90
44069;DHT22;29738;51.234;5.484;2023-04-26T22:39:18;6.50;99.90
44069;DHT22;29738;51.234;5.484;2023-04-26T22:41:43;6.50;99.90
44069;DHT22;29738;51.234;5.484;2023-04-26T22:44:14;6.50;99.90
44069;DHT22;29738;51.234;5.484;2023-04-26T22:46:39;6.20;99.90
44069;DHT22;29738;51.234;5.484;2023-04-26T22:49:05;6.20;99.90
44069;DHT22;29738;51.234;5.484;2023-04-26T22:51:34;6.00;99.90
44069;DHT22;29738;51.234;5.484;2023-04-26T22:54:00;6.00;99.90
44069;DHT22;29738;51.234;5.484;2023-04-26T23:48:40;5.40;99.90
44069;DHT22;29738;51.234;5.484;2023-04-26T23:51:06;5.20;99.90
44069;DHT22;29738;51.234;5.484;2023-04-26T23:53:34;5.10;99.90
44069;DHT22;29738;51.234;5.484;2023-04-26T23:56:01;4.80;99.90
44069;DHT22;29738;51.234;5.484;2023-04-26T23:58:28;4.90;99.90
